BOV2401 SLCB-SABE
Flight info
| Callsign | BOV2401 |
|---|---|
| Flight time | N/A |
| Altitude | 35000 |
| Route | ATAVO DCT USVES UW22 ALC DCT DOPGO DCT ESMUR UL417 PUPSI DCT TOPOG UL404 ISOPO UT672 MULTA DCT SNT SNT8Q |
| Aircraft | B738/M-SDE2E3FGHIRWXY/LB1 |
Departure
| Time | 2026-04-12 13:47 |
|---|---|
| Airport | Jorge Wilsterman International Airport (SLCB) |
Arrival
| Time | N/A |
|---|---|
| Airport | Aeroparque Jorge Newbery (SABE) |
| Time | Latitude | Longitude | Altitude | Speed | Heading |
|---|---|---|---|---|---|
| 2026-04-12 13:19 | -17.41530 | -66.17888 | 8361 ft | 0 kts | 44° |
| 2026-04-12 13:34 | -17.41541 | -66.17899 | 8361 ft | 4 kts | 45° |
| 2026-04-12 13:34 | -17.41560 | -66.17920 | 8361 ft | 4 kts | 49° |
| 2026-04-12 13:35 | -17.41577 | -66.17941 | 8361 ft | 4 kts | 55° |
| 2026-04-12 13:35 | -17.41586 | -66.17955 | 8361 ft | 1 kts | 58° |
| 2026-04-12 13:35 | -17.41587 | -66.17957 | 8360 ft | 0 kts | 58° |
| 2026-04-12 13:38 | -17.41585 | -66.17953 | 8360 ft | 3 kts | 63° |
| 2026-04-12 13:38 | -17.41609 | -66.17919 | 8361 ft | 9 kts | 157° |
| 2026-04-12 13:38 | -17.41684 | -66.17932 | 8360 ft | 11 kts | 174° |
| 2026-04-12 13:38 | -17.41739 | -66.17882 | 8360 ft | 10 kts | 131° |
| 2026-04-12 13:39 | -17.41788 | -66.17827 | 8360 ft | 10 kts | 133° |
| 2026-04-12 13:39 | -17.41834 | -66.17773 | 8360 ft | 10 kts | 131° |
| 2026-04-12 13:39 | -17.41883 | -66.17715 | 8361 ft | 11 kts | 132° |
| 2026-04-12 13:39 | -17.41940 | -66.17649 | 8361 ft | 13 kts | 131° |
| 2026-04-12 13:40 | -17.42006 | -66.17572 | 8361 ft | 15 kts | 131° |
| 2026-04-12 13:40 | -17.42079 | -66.17487 | 8361 ft | 15 kts | 132° |
| 2026-04-12 13:40 | -17.42150 | -66.17405 | 8360 ft | 15 kts | 132° |
| 2026-04-12 13:40 | -17.42217 | -66.17327 | 8360 ft | 14 kts | 132° |
| 2026-04-12 13:41 | -17.42283 | -66.17252 | 8360 ft | 14 kts | 132° |
| 2026-04-12 13:41 | -17.42344 | -66.17180 | 8360 ft | 13 kts | 132° |
| 2026-04-12 13:41 | -17.42404 | -66.17111 | 8360 ft | 13 kts | 131° |
| 2026-04-12 13:41 | -17.42462 | -66.17043 | 8359 ft | 12 kts | 132° |
| 2026-04-12 13:42 | -17.42524 | -66.16986 | 8360 ft | 12 kts | 167° |
| 2026-04-12 13:42 | -17.42594 | -66.17027 | 8359 ft | 12 kts | 220° |
| 2026-04-12 13:42 | -17.42669 | -66.17049 | 8360 ft | 11 kts | 164° |
| 2026-04-12 13:42 | -17.42728 | -66.16995 | 8360 ft | 11 kts | 132° |
| 2026-04-12 13:43 | -17.42779 | -66.16936 | 8360 ft | 11 kts | 132° |
| 2026-04-12 13:43 | -17.42829 | -66.16878 | 8360 ft | 11 kts | 132° |
| 2026-04-12 13:43 | -17.42877 | -66.16821 | 8361 ft | 10 kts | 131° |
| 2026-04-12 13:43 | -17.42927 | -66.16763 | 8362 ft | 13 kts | 132° |
| 2026-04-12 13:44 | -17.42996 | -66.16683 | 8362 ft | 15 kts | 132° |
| 2026-04-12 13:44 | -17.43069 | -66.16599 | 8362 ft | 16 kts | 132° |
| 2026-04-12 13:44 | -17.43136 | -66.16512 | 8362 ft | 15 kts | 115° |
| 2026-04-12 13:44 | -17.43167 | -66.16455 | 8361 ft | 3 kts | 198° |
| 2026-04-12 13:45 | -17.43172 | -66.16479 | 8361 ft | 4 kts | 287° |
| 2026-04-12 13:45 | -17.43152 | -66.16502 | 8362 ft | 4 kts | 314° |
| 2026-04-12 13:45 | -17.43131 | -66.16525 | 8362 ft | 4 kts | 312° |
| 2026-04-12 13:45 | -17.43066 | -66.16601 | 8362 ft | 39 kts | 311° |
| 2026-04-12 13:46 | -17.42737 | -66.16982 | 8360 ft | 101 kts | 312° |
| 2026-04-12 13:46 | -17.42148 | -66.17667 | 8362 ft | 154 kts | 312° |
| 2026-04-12 13:46 | -17.41322 | -66.18620 | 8368 ft | 198 kts | 312° |
| 2026-04-12 13:46 | -17.40350 | -66.19729 | 8809 ft | 210 kts | 313° |
| 2026-04-12 13:47 | -17.39300 | -66.20912 | 9121 ft | 233 kts | 313° |
| 2026-04-12 13:47 | -17.38158 | -66.22192 | 9616 ft | 243 kts | 308° |
| 2026-04-12 13:47 | -17.37390 | -66.23739 | 10378 ft | 242 kts | 282° |
| 2026-04-12 13:47 | -17.37455 | -66.25550 | 10607 ft | 262 kts | 248° |
| 2026-04-12 13:48 | -17.38511 | -66.27110 | 10960 ft | 274 kts | 217° |
| 2026-04-12 13:48 | -17.40295 | -66.27900 | 11397 ft | 289 kts | 187° |
| 2026-04-12 13:48 | -17.42410 | -66.27873 | 11437 ft | 320 kts | 175° |
| 2026-04-12 13:48 | -17.44685 | -66.28148 | 11492 ft | 342 kts | 198° |
| 2026-04-12 13:49 | -17.47082 | -66.28654 | 11450 ft | 360 kts | 178° |
| 2026-04-12 13:49 | -17.49509 | -66.28023 | 11429 ft | 364 kts | 152° |
| 2026-04-12 13:49 | -17.51407 | -66.26321 | 11494 ft | 363 kts | 126° |
| 2026-04-12 13:49 | -17.52400 | -66.23932 | 11473 ft | 364 kts | 99° |
| 2026-04-12 13:50 | -17.52424 | -66.21293 | 11471 ft | 361 kts | 84° |
| 2026-04-12 13:50 | -17.52101 | -66.18681 | 11440 ft | 360 kts | 82° |
| 2026-04-12 13:50 | -17.51766 | -66.16082 | 11437 ft | 359 kts | 82° |
| 2026-04-12 13:50 | -17.51624 | -66.13472 | 11433 ft | 359 kts | 96° |
| 2026-04-12 13:51 | -17.52415 | -66.11046 | 11454 ft | 358 kts | 123° |
| 2026-04-12 13:51 | -17.54180 | -66.09224 | 11426 ft | 359 kts | 150° |
| 2026-04-12 13:51 | -17.56476 | -66.08181 | 11454 ft | 360 kts | 158° |
| 2026-04-12 13:51 | -17.58709 | -66.06979 | 11430 ft | 360 kts | 146° |
| 2026-04-12 13:52 | -17.60716 | -66.05406 | 11435 ft | 362 kts | 143° |
| 2026-04-12 13:52 | -17.62911 | -66.04119 | 11428 ft | 364 kts | 159° |
| 2026-04-12 13:52 | -17.65351 | -66.03577 | 11390 ft | 365 kts | 180° |
| 2026-04-12 13:52 | -17.67881 | -66.03793 | 11397 ft | 362 kts | 187° |
| 2026-04-12 13:53 | -17.70367 | -66.04179 | 11414 ft | 362 kts | 189° |
| 2026-04-12 13:53 | -17.72773 | -66.04603 | 12695 ft | 331 kts | 190° |
| 2026-04-12 13:53 | -17.75066 | -66.05008 | 13315 ft | 344 kts | 189° |
| 2026-04-12 13:53 | -17.77499 | -66.05405 | 13433 ft | 364 kts | 189° |
| 2026-04-12 13:54 | -17.80055 | -66.05808 | 13422 ft | 373 kts | 188° |
| 2026-04-12 13:54 | -17.82593 | -66.06202 | 13423 ft | 374 kts | 188° |
| 2026-04-12 13:54 | -17.85177 | -66.06599 | 13420 ft | 374 kts | 188° |
| 2026-04-12 13:54 | -17.87754 | -66.06995 | 13426 ft | 373 kts | 188° |
| 2026-04-12 13:55 | -17.90326 | -66.07391 | 13414 ft | 372 kts | 188° |
| 2026-04-12 13:55 | -17.92890 | -66.07787 | 13413 ft | 372 kts | 188° |
| 2026-04-12 13:55 | -17.95429 | -66.08179 | 13415 ft | 373 kts | 188° |
| 2026-04-12 13:55 | -17.97785 | -66.08544 | 13449 ft | 372 kts | 189° |
| 2026-04-12 13:56 | -18.00364 | -66.08872 | 13407 ft | 373 kts | 180° |
| 2026-04-12 13:56 | -18.02938 | -66.08588 | 13484 ft | 370 kts | 171° |
| 2026-04-12 13:56 | -18.05490 | -66.08169 | 13467 ft | 372 kts | 171° |
| 2026-04-12 13:56 | -18.07867 | -66.07792 | 13435 ft | 374 kts | 171° |
| 2026-04-12 13:57 | -18.10452 | -66.07359 | 13417 ft | 375 kts | 171° |
| 2026-04-12 13:57 | -18.13028 | -66.06926 | 13410 ft | 374 kts | 171° |
| 2026-04-12 13:57 | -18.15605 | -66.06502 | 13396 ft | 374 kts | 171° |
| 2026-04-12 13:57 | -18.18146 | -66.06092 | 13399 ft | 372 kts | 172° |
| 2026-04-12 13:58 | -18.20007 | -66.05796 | 13441 ft | 370 kts | 172° |
| 2026-04-12 13:58 | -18.22537 | -66.05396 | 14123 ft | 366 kts | 172° |
| 2026-04-12 13:58 | -18.25082 | -66.04997 | 14647 ft | 369 kts | 172° |
| 2026-04-12 13:58 | -18.27602 | -66.04601 | 15182 ft | 371 kts | 172° |
| 2026-04-12 13:59 | -18.30166 | -66.04200 | 15741 ft | 373 kts | 172° |
| 2026-04-12 13:59 | -18.32753 | -66.03795 | 16314 ft | 375 kts | 172° |
| 2026-04-12 13:59 | -18.35337 | -66.03390 | 16891 ft | 376 kts | 172° |
| 2026-04-12 13:59 | -18.37941 | -66.02982 | 17473 ft | 378 kts | 172° |
| 2026-04-12 14:00 | -18.40512 | -66.02579 | 18064 ft | 378 kts | 172° |
| 2026-04-12 14:00 | -18.43123 | -66.02169 | 18661 ft | 379 kts | 172° |
| 2026-04-12 14:00 | -18.45740 | -66.01759 | 19188 ft | 379 kts | 172° |
| 2026-04-12 14:00 | -18.48360 | -66.01348 | 19739 ft | 380 kts | 172° |
| 2026-04-12 14:01 | -18.50982 | -66.00938 | 20298 ft | 380 kts | 173° |
| 2026-04-12 14:01 | -18.53600 | -66.00530 | 20851 ft | 381 kts | 173° |
| 2026-04-12 14:01 | -18.56198 | -66.00127 | 21405 ft | 381 kts | 173° |
| 2026-04-12 14:01 | -18.58823 | -65.99720 | 21995 ft | 381 kts | 173° |
| 2026-04-12 14:02 | -18.61457 | -65.99311 | 22554 ft | 383 kts | 173° |
| 2026-04-12 14:02 | -18.64137 | -65.98894 | 22688 ft | 397 kts | 173° |
| 2026-04-12 14:02 | -18.66923 | -65.98463 | 22790 ft | 410 kts | 173° |
| 2026-04-12 14:02 | -18.69792 | -65.98017 | 22892 ft | 422 kts | 173° |
| 2026-04-12 14:03 | -18.72731 | -65.97559 | 23035 ft | 432 kts | 173° |
| 2026-04-12 14:03 | -18.75696 | -65.97096 | 23328 ft | 437 kts | 173° |
| 2026-04-12 14:03 | -18.78723 | -65.96623 | 23753 ft | 439 kts | 174° |
| 2026-04-12 14:03 | -18.81766 | -65.96146 | 24119 ft | 441 kts | 174° |
| 2026-04-12 14:04 | -18.84768 | -65.95677 | 24479 ft | 442 kts | 174° |
| 2026-04-12 14:04 | -18.87817 | -65.95200 | 24833 ft | 443 kts | 174° |
| 2026-04-12 14:04 | -18.90877 | -65.94720 | 25173 ft | 444 kts | 174° |
| 2026-04-12 14:04 | -18.93952 | -65.94240 | 25512 ft | 446 kts | 174° |
| 2026-04-12 14:05 | -18.97031 | -65.93759 | 25836 ft | 447 kts | 174° |
| 2026-04-12 14:05 | -19.00120 | -65.93275 | 26153 ft | 449 kts | 174° |
| 2026-04-12 14:05 | -19.06296 | -65.92309 | 26807 ft | 452 kts | 175° |
| 2026-04-12 14:06 | -19.09411 | -65.91821 | 27136 ft | 453 kts | 175° |
| 2026-04-12 14:06 | -19.12543 | -65.91330 | 27457 ft | 454 kts | 175° |
| 2026-04-12 14:06 | -19.15675 | -65.90840 | 27747 ft | 456 kts | 175° |
| 2026-04-12 14:06 | -19.18815 | -65.90347 | 28007 ft | 457 kts | 175° |
| 2026-04-12 14:07 | -19.21975 | -65.89852 | 28270 ft | 459 kts | 175° |
| 2026-04-12 14:07 | -19.25139 | -65.89355 | 28533 ft | 460 kts | 175° |
| 2026-04-12 14:07 | -19.28307 | -65.88857 | 28782 ft | 461 kts | 175° |
| 2026-04-12 14:07 | -19.31447 | -65.88364 | 29030 ft | 462 kts | 175° |
| 2026-04-12 14:08 | -19.34641 | -65.87862 | 29280 ft | 464 kts | 175° |
| 2026-04-12 14:08 | -19.37847 | -65.87359 | 29514 ft | 465 kts | 175° |
| 2026-04-12 14:08 | -19.41060 | -65.86857 | 29720 ft | 466 kts | 175° |
| 2026-04-12 14:08 | -19.44253 | -65.86359 | 29919 ft | 468 kts | 175° |
| 2026-04-12 14:09 | -19.47488 | -65.85854 | 30125 ft | 469 kts | 176° |
| 2026-04-12 14:09 | -19.50721 | -65.85349 | 30340 ft | 470 kts | 176° |
| 2026-04-12 14:09 | -19.53957 | -65.84842 | 30600 ft | 469 kts | 176° |
| 2026-04-12 14:09 | -19.57149 | -65.84342 | 30914 ft | 467 kts | 176° |
| 2026-04-12 14:10 | -19.60355 | -65.83839 | 31324 ft | 463 kts | 176° |
| 2026-04-12 14:10 | -19.63533 | -65.83341 | 31631 ft | 461 kts | 176° |
| 2026-04-12 14:10 | -19.66708 | -65.82845 | 31877 ft | 461 kts | 176° |
| 2026-04-12 14:10 | -19.69896 | -65.82347 | 32150 ft | 461 kts | 176° |
| 2026-04-12 14:11 | -19.73031 | -65.81858 | 32485 ft | 459 kts | 176° |
| 2026-04-12 14:11 | -19.76185 | -65.81364 | 32847 ft | 456 kts | 177° |
| 2026-04-12 14:11 | -19.79323 | -65.80872 | 33181 ft | 455 kts | 177° |
| 2026-04-12 14:11 | -19.82457 | -65.80382 | 33547 ft | 453 kts | 177° |
| 2026-04-12 14:12 | -19.85572 | -65.79894 | 33896 ft | 451 kts | 177° |
| 2026-04-12 14:12 | -19.88670 | -65.79409 | 34217 ft | 448 kts | 178° |
| 2026-04-12 14:12 | -19.91747 | -65.78927 | 34454 ft | 447 kts | 178° |
| 2026-04-12 14:12 | -19.94834 | -65.78445 | 34560 ft | 448 kts | 177° |
| 2026-04-12 14:13 | -19.97887 | -65.77966 | 34723 ft | 449 kts | 177° |
| 2026-04-12 14:13 | -20.00983 | -65.77479 | 34923 ft | 450 kts | 177° |
| 2026-04-12 14:13 | -20.04090 | -65.76992 | 35107 ft | 447 kts | 177° |
| 2026-04-12 14:13 | -20.07157 | -65.76514 | 35153 ft | 444 kts | 178° |
| 2026-04-12 14:14 | -20.13277 | -65.75573 | 35163 ft | 446 kts | 178° |
| 2026-04-12 14:14 | -20.19458 | -65.74626 | 35175 ft | 452 kts | 177° |
| 2026-04-12 14:15 | -20.25708 | -65.73663 | 35170 ft | 459 kts | 177° |
| 2026-04-12 14:15 | -20.31995 | -65.72689 | 35147 ft | 452 kts | 177° |
| 2026-04-12 14:16 | -20.38181 | -65.71724 | 35164 ft | 448 kts | 178° |
| 2026-04-12 14:16 | -20.44314 | -65.70776 | 35138 ft | 447 kts | 178° |
| 2026-04-12 14:17 | -20.50461 | -65.69824 | 35158 ft | 446 kts | 178° |
| 2026-04-12 14:17 | -20.56619 | -65.68870 | 35166 ft | 447 kts | 177° |
| 2026-04-12 14:18 | -20.62751 | -65.67919 | 35168 ft | 449 kts | 177° |
| 2026-04-12 14:18 | -20.68975 | -65.66952 | 35155 ft | 451 kts | 177° |
| 2026-04-12 14:19 | -20.75163 | -65.65989 | 35155 ft | 452 kts | 177° |
| 2026-04-12 14:19 | -20.81417 | -65.65016 | 35161 ft | 454 kts | 177° |
| 2026-04-12 14:20 | -20.87683 | -65.64039 | 35160 ft | 455 kts | 177° |
| 2026-04-12 14:20 | -20.93919 | -65.63066 | 35162 ft | 455 kts | 177° |
| 2026-04-12 14:21 | -21.00198 | -65.62086 | 35155 ft | 454 kts | 177° |
| 2026-04-12 14:21 | -21.06420 | -65.61113 | 35163 ft | 453 kts | 177° |
| 2026-04-12 14:22 | -21.12662 | -65.60137 | 35167 ft | 452 kts | 177° |
| 2026-04-12 14:22 | -21.18889 | -65.59163 | 35174 ft | 451 kts | 177° |
| 2026-04-12 14:23 | -21.25104 | -65.58190 | 35172 ft | 451 kts | 177° |
| 2026-04-12 14:23 | -21.31277 | -65.57223 | 35168 ft | 450 kts | 177° |
| 2026-04-12 14:24 | -21.37471 | -65.56251 | 35179 ft | 449 kts | 177° |
| 2026-04-12 14:24 | -21.43631 | -65.55284 | 35182 ft | 449 kts | 177° |
| 2026-04-12 14:25 | -21.49840 | -65.54309 | 35180 ft | 450 kts | 177° |
| 2026-04-12 14:25 | -21.56042 | -65.53334 | 35188 ft | 451 kts | 178° |
| 2026-04-12 14:26 | -21.62251 | -65.52356 | 35187 ft | 454 kts | 177° |
| 2026-04-12 14:26 | -21.68502 | -65.51366 | 35150 ft | 453 kts | 177° |
| 2026-04-12 14:27 | -21.73656 | -65.50552 | 35179 ft | 448 kts | 177° |
| 2026-04-12 14:27 | -21.79837 | -65.49580 | 35189 ft | 446 kts | 178° |
| 2026-04-12 14:28 | -21.85975 | -65.48613 | 35205 ft | 444 kts | 178° |
| 2026-04-12 14:28 | -21.92111 | -65.47643 | 35211 ft | 446 kts | 178° |
| 2026-04-12 14:29 | -21.98260 | -65.46672 | 35198 ft | 449 kts | 177° |
| 2026-04-12 14:29 | -22.04456 | -65.45690 | 35201 ft | 451 kts | 177° |
| 2026-04-12 14:30 | -22.10685 | -65.44928 | 35195 ft | 446 kts | 185° |
| 2026-04-12 14:30 | -22.16894 | -65.45007 | 35204 ft | 446 kts | 187° |
| 2026-04-12 14:31 | -22.23103 | -65.45151 | 35207 ft | 447 kts | 187° |
| 2026-04-12 14:31 | -22.29294 | -65.45257 | 35202 ft | 448 kts | 186° |
| 2026-04-12 14:32 | -22.35533 | -65.45339 | 35203 ft | 448 kts | 186° |
| 2026-04-12 14:32 | -22.41774 | -65.45415 | 35204 ft | 447 kts | 186° |
| 2026-04-12 14:33 | -22.48004 | -65.45491 | 35195 ft | 447 kts | 186° |
| 2026-04-12 14:33 | -22.54182 | -65.45569 | 35200 ft | 446 kts | 186° |
| 2026-04-12 14:34 | -22.60387 | -65.45647 | 35198 ft | 445 kts | 186° |
| 2026-04-12 14:34 | -22.66587 | -65.45725 | 35196 ft | 444 kts | 186° |
| 2026-04-12 14:35 | -22.72733 | -65.45803 | 35196 ft | 444 kts | 186° |
| 2026-04-12 14:35 | -22.78906 | -65.45881 | 35203 ft | 443 kts | 186° |
| 2026-04-12 14:36 | -22.85074 | -65.45957 | 35205 ft | 443 kts | 186° |
| 2026-04-12 14:36 | -22.91250 | -65.46030 | 35201 ft | 443 kts | 186° |
| 2026-04-12 14:37 | -22.97387 | -65.46103 | 35193 ft | 443 kts | 187° |
| 2026-04-12 14:37 | -23.03559 | -65.46175 | 35192 ft | 442 kts | 186° |
| 2026-04-12 14:38 | -23.09707 | -65.46248 | 35207 ft | 442 kts | 186° |
| 2026-04-12 14:38 | -23.15874 | -65.46324 | 35206 ft | 444 kts | 186° |
| 2026-04-12 14:39 | -23.22062 | -65.46397 | 35196 ft | 444 kts | 186° |
| 2026-04-12 14:39 | -23.28201 | -65.46469 | 35202 ft | 443 kts | 187° |
| 2026-04-12 14:40 | -23.34384 | -65.46543 | 35197 ft | 444 kts | 186° |
| 2026-04-12 14:40 | -23.40571 | -65.46618 | 35192 ft | 445 kts | 186° |
| 2026-04-12 14:41 | -23.46786 | -65.46695 | 34823 ft | 453 kts | 186° |
| 2026-04-12 14:41 | -23.49905 | -65.46733 | 34360 ft | 453 kts | 186° |
| 2026-04-12 14:41 | -23.53043 | -65.46727 | 33860 ft | 452 kts | 182° |
| 2026-04-12 14:42 | -23.56173 | -65.46300 | 33392 ft | 454 kts | 174° |
| 2026-04-12 14:42 | -23.59247 | -65.45390 | 32783 ft | 460 kts | 164° |
| 2026-04-12 14:42 | -23.62210 | -65.44090 | 32306 ft | 455 kts | 162° |
| 2026-04-12 14:42 | -23.65118 | -65.42757 | 31889 ft | 450 kts | 162° |
| 2026-04-12 14:43 | -23.67963 | -65.41445 | 31449 ft | 448 kts | 162° |
| 2026-04-12 14:43 | -23.70845 | -65.40124 | 30972 ft | 447 kts | 162° |
| 2026-04-12 14:43 | -23.73717 | -65.38820 | 30536 ft | 445 kts | 162° |
| 2026-04-12 14:43 | -23.76576 | -65.37532 | 30049 ft | 444 kts | 162° |
| 2026-04-12 14:44 | -23.79434 | -65.36251 | 29506 ft | 440 kts | 162° |
| 2026-04-12 14:44 | -23.82213 | -65.35006 | 29055 ft | 433 kts | 162° |
| 2026-04-12 14:44 | -23.84981 | -65.33767 | 28614 ft | 427 kts | 162° |
| 2026-04-12 14:44 | -23.87717 | -65.32542 | 28181 ft | 422 kts | 161° |
| 2026-04-12 14:45 | -23.90426 | -65.31329 | 27761 ft | 419 kts | 162° |
| 2026-04-12 14:45 | -23.93131 | -65.30118 | 27335 ft | 418 kts | 161° |
| 2026-04-12 14:45 | -23.95823 | -65.28913 | 26883 ft | 417 kts | 161° |
| 2026-04-12 14:45 | -23.98513 | -65.27708 | 26440 ft | 415 kts | 161° |
| 2026-04-12 14:46 | -24.01183 | -65.26510 | 26005 ft | 413 kts | 161° |
| 2026-04-12 14:46 | -24.03826 | -65.25325 | 25569 ft | 412 kts | 161° |
| 2026-04-12 14:46 | -24.06443 | -65.24149 | 25137 ft | 410 kts | 161° |
| 2026-04-12 14:46 | -24.09082 | -65.22964 | 24699 ft | 409 kts | 161° |
| 2026-04-12 14:47 | -24.11715 | -65.21780 | 24279 ft | 408 kts | 160° |
| 2026-04-12 14:47 | -24.14336 | -65.20601 | 23846 ft | 407 kts | 160° |
| 2026-04-12 14:47 | -24.16955 | -65.19423 | 23377 ft | 406 kts | 160° |
| 2026-04-12 14:47 | -24.19570 | -65.18245 | 22934 ft | 404 kts | 160° |
| 2026-04-12 14:48 | -24.22158 | -65.17079 | 22486 ft | 401 kts | 160° |
| 2026-04-12 14:48 | -24.24705 | -65.15931 | 22062 ft | 398 kts | 160° |
| 2026-04-12 14:48 | -24.27266 | -65.14777 | 21660 ft | 396 kts | 160° |
| 2026-04-12 14:48 | -24.29809 | -65.13630 | 21241 ft | 393 kts | 160° |
| 2026-04-12 14:49 | -24.32337 | -65.12490 | 20831 ft | 390 kts | 160° |
| 2026-04-12 14:49 | -24.34811 | -65.11373 | 20421 ft | 388 kts | 160° |
| 2026-04-12 14:49 | -24.37307 | -65.10283 | 20006 ft | 384 kts | 165° |
| 2026-04-12 14:49 | -24.39932 | -65.09894 | 19558 ft | 377 kts | 184° |
| 2026-04-12 14:50 | -24.42507 | -65.10457 | 18872 ft | 378 kts | 201° |
| 2026-04-12 14:50 | -24.44985 | -65.11442 | 18331 ft | 379 kts | 202° |
| 2026-04-12 14:50 | -24.47451 | -65.12456 | 17842 ft | 377 kts | 202° |
| 2026-04-12 14:50 | -24.49896 | -65.13467 | 17410 ft | 372 kts | 202° |
| 2026-04-12 14:51 | -24.52264 | -65.14440 | 16958 ft | 361 kts | 202° |
| 2026-04-12 14:51 | -24.54588 | -65.15387 | 16571 ft | 350 kts | 201° |
| 2026-04-12 14:51 | -24.56860 | -65.16309 | 16170 ft | 341 kts | 201° |
| 2026-04-12 14:51 | -24.59028 | -65.17186 | 15800 ft | 332 kts | 201° |
| 2026-04-12 14:52 | -24.61173 | -65.18052 | 15425 ft | 324 kts | 201° |
| 2026-04-12 14:52 | -24.63277 | -65.18902 | 15066 ft | 319 kts | 201° |
| 2026-04-12 14:52 | -24.65333 | -65.19732 | 14880 ft | 317 kts | 201° |
| 2026-04-12 14:52 | -24.67350 | -65.20545 | 14862 ft | 299 kts | 201° |
| 2026-04-12 14:53 | -24.69244 | -65.21308 | 14736 ft | 280 kts | 201° |
| 2026-04-12 14:53 | -24.70999 | -65.22016 | 14627 ft | 263 kts | 201° |
| 2026-04-12 14:53 | -24.72670 | -65.22691 | 14469 ft | 249 kts | 201° |
| 2026-04-12 14:53 | -24.74291 | -65.23346 | 14104 ft | 246 kts | 201° |
| 2026-04-12 14:54 | -24.75895 | -65.23996 | 13635 ft | 246 kts | 201° |
| 2026-04-12 14:54 | -24.77481 | -65.24638 | 13224 ft | 244 kts | 201° |
| 2026-04-12 14:54 | -24.79064 | -65.25279 | 12814 ft | 241 kts | 201° |
| 2026-04-12 14:54 | -24.80631 | -65.25912 | 12405 ft | 238 kts | 201° |
| 2026-04-12 14:55 | -24.82175 | -65.26537 | 12013 ft | 235 kts | 201° |
| 2026-04-12 14:55 | -24.83712 | -65.27160 | 11636 ft | 235 kts | 201° |
| 2026-04-12 14:55 | -24.85244 | -65.27781 | 11315 ft | 233 kts | 201° |
| 2026-04-12 14:55 | -24.86757 | -65.28395 | 11073 ft | 230 kts | 200° |
| 2026-04-12 14:56 | -24.88258 | -65.28999 | 10772 ft | 228 kts | 200° |
| 2026-04-12 14:56 | -24.89696 | -65.29581 | 10680 ft | 219 kts | 200° |
| 2026-04-12 14:56 | -24.91123 | -65.30160 | 10532 ft | 218 kts | 200° |
| 2026-04-12 14:56 | -24.92548 | -65.30737 | 10462 ft | 220 kts | 200° |
| 2026-04-12 14:57 | -24.94003 | -65.31328 | 10386 ft | 226 kts | 200° |
| 2026-04-12 14:57 | -24.95483 | -65.31931 | 10324 ft | 230 kts | 201° |
| 2026-04-12 14:57 | -24.97020 | -65.32561 | 10110 ft | 237 kts | 200° |
| 2026-04-12 14:57 | -24.98560 | -65.33182 | 9870 ft | 233 kts | 200° |
| 2026-04-12 14:58 | -25.00042 | -65.33781 | 9709 ft | 224 kts | 200° |
| 2026-04-12 14:58 | -25.01488 | -65.34366 | 9551 ft | 217 kts | 200° |
| 2026-04-12 14:58 | -25.02894 | -65.34935 | 9444 ft | 213 kts | 200° |
| 2026-04-12 14:58 | -25.04265 | -65.35493 | 9321 ft | 205 kts | 201° |
| 2026-04-12 14:59 | -25.05417 | -65.36369 | 9254 ft | 206 kts | 232° |
| 2026-04-12 14:59 | -25.05928 | -65.37841 | 9036 ft | 208 kts | 265° |
| 2026-04-12 14:59 | -25.05804 | -65.39413 | 8888 ft | 209 kts | 279° |
| 2026-04-12 14:59 | -25.05527 | -65.40982 | 8731 ft | 206 kts | 280° |
| 2026-04-12 15:00 | -25.04924 | -65.44175 | 8291 ft | 213 kts | 279° |
| 2026-04-12 15:00 | -25.04637 | -65.45763 | 8067 ft | 208 kts | 279° |
| 2026-04-12 15:00 | -25.04361 | -65.47326 | 7866 ft | 208 kts | 279° |
| 2026-04-12 15:01 | -25.04081 | -65.48888 | 7636 ft | 206 kts | 279° |
| 2026-04-12 15:01 | -25.03795 | -65.50420 | 7425 ft | 204 kts | 286° |
| 2026-04-12 15:01 | -25.03035 | -65.51696 | 7189 ft | 205 kts | 325° |
| 2026-04-12 15:01 | -25.01683 | -65.52132 | 6982 ft | 207 kts | 3° |
| 2026-04-12 15:02 | -25.00256 | -65.51875 | 6742 ft | 208 kts | 12° |
| 2026-04-12 15:02 | -24.98853 | -65.51556 | 6457 ft | 202 kts | 12° |
| 2026-04-12 15:02 | -24.97514 | -65.51253 | 6220 ft | 192 kts | 12° |
| 2026-04-12 15:02 | -24.96240 | -65.50969 | 5945 ft | 182 kts | 11° |
| 2026-04-12 15:03 | -24.95038 | -65.50701 | 5709 ft | 172 kts | 11° |
| 2026-04-12 15:03 | -24.93878 | -65.50444 | 5482 ft | 167 kts | 11° |
| 2026-04-12 15:03 | -24.92746 | -65.50194 | 5273 ft | 165 kts | 11° |
| 2026-04-12 15:03 | -24.91613 | -65.49944 | 5045 ft | 165 kts | 11° |
| 2026-04-12 15:04 | -24.90489 | -65.49698 | 4804 ft | 167 kts | 11° |
| 2026-04-12 15:04 | -24.89346 | -65.49446 | 4589 ft | 166 kts | 12° |
| 2026-04-12 15:04 | -24.88243 | -65.49186 | 4311 ft | 163 kts | 11° |
| 2026-04-12 15:04 | -24.87125 | -65.48955 | 4053 ft | 164 kts | 11° |
| 2026-04-12 15:05 | -24.86086 | -65.48729 | 4017 ft | 135 kts | 11° |
| 2026-04-12 15:05 | -24.85321 | -65.48566 | 4016 ft | 76 kts | 11° |
| 2026-04-12 15:05 | -24.84940 | -65.48484 | 4017 ft | 46 kts | 11° |
| 2026-04-12 15:05 | -24.84734 | -65.48441 | 4016 ft | 22 kts | 11° |
| 2026-04-12 15:06 | -24.84638 | -65.48355 | 4004 ft | 16 kts | 41° |
| 2026-04-12 15:06 | -24.84585 | -65.48251 | 4016 ft | 15 kts | 72° |
| 2026-04-12 15:06 | -24.84553 | -65.48140 | 4016 ft | 15 kts | 72° |
| 2026-04-12 15:06 | -24.84521 | -65.48034 | 4010 ft | 14 kts | 72° |
| 2026-04-12 15:07 | -24.84499 | -65.47951 | 4016 ft | 10 kts | 89° |
| 2026-04-12 15:07 | -24.84494 | -65.47909 | 4016 ft | 4 kts | 41° |
| 2026-04-12 15:07 | -24.84473 | -65.47900 | 4016 ft | 2 kts | 21° |
| 2026-04-12 15:07 | -24.84472 | -65.47900 | 4016 ft | 0 kts | 21° |